Time;durP1;ratioP1;P1;durP2;ratioP2;P2;SDS_P1;SDS_P2;PMS_P1;PMS_P2;Temp;Humidity;BMP_temperature;BMP_pressure;BME280_temperature;BME280_humidity;BME280_pressure;Samples;Min_cycle;Max_cycle;Signal;HPM_P1;HPM_P2
2022/09/25 00:01:34;;;;;;;0.52;0.32;;;11.70;90.70;;;;;;4880711;29;20041;-77
2022/09/25 00:04:00;;;;;;;1.15;0.30;;;11.70;90.70;;;;;;4897565;29;20068;-78
2022/09/25 00:06:32;;;;;;;0.32;0.22;;;11.70;90.70;;;;;;4875009;29;20041;-77
2022/09/25 00:09:00;;;;;;;0.10;0.10;;;11.80;90.70;;;;;;4897506;29;20056;-76
2022/09/25 00:11:31;;;;;;;0.20;0.20;;;11.80;90.70;;;;;;4867112;29;20041;-76
2022/09/25 00:13:59;;;;;;;1.25;0.20;;;11.70;90.70;;;;;;4896600;29;20135;-77
2022/09/25 00:16:29;;;;;;;0.20;0.20;;;11.60;90.70;;;;;;4870971;29;20495;-79
2022/09/25 00:21:39;;;;;;;0.25;0.20;;;11.60;90.70;;;;;;4868090;29;20044;-78
2022/09/25 00:24:08;;;;;;;0.10;0.10;;;11.60;90.70;;;;;;4897162;29;20041;-80
2022/09/25 00:26:36;;;;;;;0.10;0.10;;;11.60;90.70;;;;;;4880199;29;20136;-79
2022/09/25 00:29:04;;;;;;;1.85;0.25;;;11.60;90.70;;;;;;4864758;29;20444;-76
2022/09/25 00:31:30;;;;;;;0.30;0.30;;;11.50;90.70;;;;;;4896913;29;20041;-78
2022/09/25 00:33:58;;;;;;;1.08;0.30;;;11.50;90.70;;;;;;4879996;29;20489;-79
2022/09/25 00:36:24;;;;;;;1.10;0.40;;;11.50;90.70;;;;;;4897428;29;20053;-76
2022/09/25 00:38:50;;;;;;;0.10;0.10;;;11.50;90.70;;;;;;4880353;29;20033;-77
2022/09/25 00:41:18;;;;;;;0.20;0.20;;;11.50;90.70;;;;;;4896840;29;20048;-77
2022/09/25 00:43:47;;;;;;;0.13;0.13;;;11.50;90.70;;;;;;4896811;29;20071;-78
2022/09/25 00:46:35;;;;;;;0.28;0.22;;;11.40;91.00;;;;;;4872338;29;20043;-77
2022/09/25 00:49:17;;;;;;;0.10;0.10;;;11.50;90.70;;;;;;4879964;29;20044;-76
2022/09/25 00:51:49;;;;;;;1.42;0.40;;;11.30;90.70;;;;;;4880272;29;20100;-80
2022/09/25 00:54:21;;;;;;;0.30;0.30;;;11.30;90.70;;;;;;4896849;29;20080;-78
2022/09/25 00:56:49;;;;;;;0.30;0.30;;;11.30;90.70;;;;;;4880947;29;20041;-78
2022/09/25 00:59:21;;;;;;;1.02;0.20;;;11.30;90.80;;;;;;4864217;29;20510;-78
2022/09/25 01:01:47;;;;;;;0.20;0.20;;;11.20;90.80;;;;;;4896427;29;20060;-78
2022/09/25 01:04:14;;;;;;;0.20;0.20;;;11.20;90.80;;;;;;4858775;29;20045;-78
2022/09/25 01:06:43;;;;;;;0.10;0.10;;;11.20;90.80;;;;;;4848962;29;20085;-79
2022/09/25 01:09:10;;;;;;;0.20;0.20;;;11.20;90.80;;;;;;4896261;29;20036;-79
2022/09/25 01:11:36;;;;;;;0.70;0.30;;;11.20;90.80;;;;;;4877651;29;20059;-79
2022/09/25 01:14:06;;;;;;;0.20;0.20;;;11.10;90.80;;;;;;4879603;29;20048;-77
2022/09/25 01:16:57;;;;;;;0.20;0.20;;;11.10;90.80;;;;;;4896385;29;20033;-76
2022/09/25 01:19:54;;;;;;;0.28;0.28;;;11.10;90.80;;;;;;4896347;29;20048;-77
2022/09/25 01:22:53;;;;;;;0.20;0.20;;;11.00;90.80;;;;;;4868296;29;20059;-75
2022/09/25 01:25:55;;;;;;;0.70;0.30;;;11.00;90.80;;;;;;4865085;29;20047;-76
2022/09/25 01:28:42;;;;;;;1.55;0.40;;;10.90;90.80;;;;;;4896233;29;20080;-76
2022/09/25 01:31:26;;;;;;;0.30;0.28;;;10.90;90.80;;;;;;4879666;29;20047;-76
2022/09/25 01:34:01;;;;;;;0.55;0.43;;;10.90;90.80;;;;;;4880877;29;20048;-75
2022/09/25 01:36:35;;;;;;;0.20;0.20;;;10.90;90.80;;;;;;4880367;29;20041;-76
2022/09/25 01:39:19;;;;;;;0.90;0.30;;;10.90;90.80;;;;;;4895969;29;20052;-75
2022/09/25 01:41:56;;;;;;;0.40;0.20;;;10.80;90.80;;;;;;4896088;29;20080;-75
2022/09/25 01:44:28;;;;;;;0.20;0.20;;;10.80;90.80;;;;;;4895839;29;20044;-76
2022/09/25 01:47:01;;;;;;;0.22;0.22;;;10.80;90.80;;;;;;4895892;29;20044;-76
2022/09/25 01:49:36;;;;;;;0.30;0.22;;;10.70;90.80;;;;;;4895665;29;20499;-76
2022/09/25 01:52:06;;;;;;;0.20;0.20;;;10.70;90.80;;;;;;4896293;29;20048;-76
2022/09/25 01:54:39;;;;;;;0.13;0.13;;;10.80;90.80;;;;;;4896374;29;20104;-76
2022/09/25 01:57:10;;;;;;;0.10;0.10;;;10.70;90.80;;;;;;4895693;29;20047;-75
2022/09/25 01:59:43;;;;;;;0.20;0.20;;;10.70;90.80;;;;;;4895627;29;20037;-76
2022/09/25 02:02:12;;;;;;;0.20;0.20;;;10.60;90.80;;;;;;4863900;29;20364;-76
2022/09/25 02:04:47;;;;;;;0.47;0.30;;;10.60;90.80;;;;;;4878855;29;20471;-76
2022/09/25 02:07:19;;;;;;;0.30;0.20;;;10.60;90.80;;;;;;4879925;29;20163;-76
2022/09/25 02:09:51;;;;;;;0.20;0.20;;;10.50;90.70;;;;;;4863572;29;20036;-75
2022/09/25 02:12:25;;;;;;;0.17;0.17;;;10.60;90.80;;;;;;4895587;29;20040;-75
2022/09/25 02:14:55;;;;;;;0.38;0.30;;;10.40;90.70;;;;;;4895601;29;20056;-75
2022/09/25 02:22:54;;;;;;;0.20;0.20;;;10.30;90.80;;;;;;4880668;29;20096;-76
2022/09/25 02:25:35;;;;;;;0.20;0.20;;;10.30;90.80;;;;;;4895453;29;20049;-75
2022/09/25 02:28:01;;;;;;;0.90;0.22;;;10.20;90.80;;;;;;4895935;29;20041;-76
2022/09/25 02:30:26;;;;;;;0.40;0.40;;;10.30;90.80;;;;;;4865942;29;20092;-75
2022/09/25 02:32:53;;;;;;;1.85;0.43;;;10.20;90.80;;;;;;4878645;29;20053;-75
2022/09/25 02:35:19;;;;;;;0.20;0.20;;;10.20;90.80;;;;;;4895219;29;20048;-75
2022/09/25 02:37:45;;;;;;;0.57;0.20;;;10.20;90.80;;;;;;4860210;29;20030;-76
2022/09/25 02:40:10;;;;;;;0.68;0.20;;;10.20;90.80;;;;;;4898586;29;20037;-76
2022/09/25 02:42:50;;;;;;;0.20;0.20;;;10.20;90.80;;;;;;4882506;29;20044;-76
2022/09/25 02:45:49;;;;;;;0.30;0.28;;;10.10;90.80;;;;;;4868009;29;20041;-76
2022/09/25 02:48:30;;;;;;;0.70;0.40;;;10.10;90.80;;;;;;4897198;29;20052;-76
2022/09/25 02:51:18;;;;;;;0.35;0.25;;;10.00;90.70;;;;;;4866755;29;20367;-75
2022/09/25 02:54:03;;;;;;;1.00;0.30;;;10.00;90.80;;;;;;4898327;29;20448;-76
2022/09/25 02:56:36;;;;;;;0.20;0.20;;;10.00;90.80;;;;;;4875159;29;20488;-76
2022/09/25 02:59:11;;;;;;;0.20;0.20;;;9.90;90.80;;;;;;4881705;29;20032;-76
2022/09/25 03:01:39;;;;;;;0.63;0.40;;;9.90;90.80;;;;;;4898655;29;20516;-76
2022/09/25 03:04:05;;;;;;;1.08;0.20;;;9.90;90.80;;;;;;4866022;29;20040;-75
2022/09/25 03:06:31;;;;;;;1.05;0.20;;;9.80;90.70;;;;;;4865711;29;20182;-75
2022/09/25 03:08:59;;;;;;;0.17;0.17;;;9.80;90.80;;;;;;4897978;29;20119;-75
2022/09/25 03:11:26;;;;;;;0.15;0.15;;;9.80;90.80;;;;;;4898273;29;20032;-76
2022/09/25 03:14:01;;;;;;;0.20;0.20;;;9.80;90.80;;;;;;4881273;29;20052;-75
2022/09/25 03:16:49;;;;;;;0.17;0.17;;;9.70;90.80;;;;;;4898328;29;20048;-75
2022/09/25 03:19:16;;;;;;;0.35;0.30;;;9.70;90.80;;;;;;4897867;29;20032;-75
2022/09/25 03:21:42;;;;;;;0.20;0.20;;;9.70;90.80;;;;;;4877588;29;20052;-75
2022/09/25 03:24:08;;;;;;;0.35;0.22;;;9.80;90.90;;;;;;4877556;29;20041;-75
2022/09/25 03:26:34;;;;;;;0.30;0.30;;;9.60;90.80;;;;;;4897991;29;20484;-75
2022/09/25 03:29:01;;;;;;;0.50;0.38;;;9.60;90.80;;;;;;4865655;29;20037;-75
2022/09/25 03:31:28;;;;;;;0.20;0.20;;;9.50;90.70;;;;;;4880793;29;20112;-76
2022/09/25 03:33:54;;;;;;;0.20;0.20;;;9.60;90.80;;;;;;4897745;29;20048;-76
2022/09/25 03:36:23;;;;;;;0.20;0.10;;;9.60;90.80;;;;;;4880975;29;20033;-75
2022/09/25 03:38:52;;;;;;;0.40;0.25;;;9.60;90.80;;;;;;4897860;29;20045;-75
2022/09/25 03:41:20;;;;;;;0.30;0.30;;;9.50;90.80;;;;;;4897686;29;20468;-76
2022/09/25 03:43:50;;;;;;;0.50;0.30;;;9.50;90.80;;;;;;4865556;29;20071;-76
2022/09/25 03:46:19;;;;;;;0.10;0.10;;;9.40;90.80;;;;;;4897861;29;20048;-75
2022/09/25 03:48:45;;;;;;;0.20;0.20;;;9.40;90.80;;;;;;4880312;29;20488;-75
2022/09/25 03:51:11;;;;;;;0.15;0.15;;;9.40;90.80;;;;;;4898004;29;20400;-76
2022/09/25 03:53:38;;;;;;;0.25;0.25;;;9.40;90.80;;;;;;4881170;29;20049;-76
2022/09/25 03:56:09;;;;;;;0.20;0.20;;;9.30;90.90;;;;;;4867686;29;20091;-75
2022/09/25 03:58:35;;;;;;;0.20;0.20;;;9.30;90.80;;;;;;4897955;29;20036;-75
2022/09/25 04:01:01;;;;;;;0.22;0.22;;;9.20;90.80;;;;;;4897499;29;20044;-75
2022/09/25 04:03:29;;;;;;;0.20;0.20;;;9.30;90.90;;;;;;4881008;29;20036;-75
2022/09/25 04:05:56;;;;;;;0.20;0.20;;;9.30;90.90;;;;;;4897823;29;20040;-76
2022/09/25 04:08:24;;;;;;;0.25;0.20;;;9.30;90.80;;;;;;4897996;29;20076;-76
2022/09/25 04:10:51;;;;;;;0.43;0.38;;;9.30;90.80;;;;;;4881056;29;20507;-76
2022/09/25 04:13:18;;;;;;;0.30;0.30;;;9.30;90.80;;;;;;4866186;29;20059;-75
2022/09/25 04:15:44;;;;;;;0.70;0.30;;;9.30;90.80;;;;;;4897745;29;20059;-76
2022/09/25 04:18:10;;;;;;;0.32;0.30;;;9.30;90.80;;;;;;4897715;29;20033;-76
2022/09/25 04:20:37;;;;;;;0.30;0.30;;;9.30;91.00;;;;;;4897920;29;20039;-75
2022/09/25 04:23:03;;;;;;;0.30;0.30;;;9.30;90.80;;;;;;4897913;29;20090;-76
2022/09/25 04:25:28;;;;;;;0.25;0.25;;;9.30;90.80;;;;;;4863214;29;20041;-76
2022/09/25 04:27:55;;;;;;;0.20;0.20;;;9.30;90.80;;;;;;4880853;29;20048;-76
2022/09/25 04:30:22;;;;;;;0.40;0.22;;;9.20;90.70;;;;;;4897563;29;20048;-76
2022/09/25 04:35:29;;;;;;;0.30;0.20;;;9.20;90.80;;;;;;4896947;29;20060;-76
2022/09/25 04:37:54;;;;;;;1.00;0.28;;;9.20;91.00;;;;;;4897270;29;20868;-76
2022/09/25 04:40:20;;;;;;;0.22;0.20;;;9.20;90.70;;;;;;4851515;29;20059;-76
2022/09/25 04:42:46;;;;;;;0.30;0.30;;;9.10;90.70;;;;;;4880816;29;20041;-76
2022/09/25 04:45:12;;;;;;;0.15;0.15;;;9.10;90.80;;;;;;4896876;29;20423;-75
2022/09/25 04:47:37;;;;;;;0.22;0.22;;;9.00;90.80;;;;;;4897538;29;20196;-76
2022/09/25 04:50:03;;;;;;;0.25;0.20;;;9.00;90.80;;;;;;4866191;29;20045;-75
2022/09/25 04:52:30;;;;;;;0.30;0.30;;;9.00;90.80;;;;;;4897383;29;20048;-76
2022/09/25 04:54:56;;;;;;;0.25;0.25;;;9.00;90.80;;;;;;4880621;29;20057;-76
2022/09/25 04:57:22;;;;;;;0.20;0.20;;;9.00;90.80;;;;;;4879964;29;20403;-76
2022/09/25 04:59:49;;;;;;;0.30;0.30;;;8.90;90.80;;;;;;4896918;29;20036;-77
2022/09/25 05:02:15;;;;;;;0.20;0.20;;;8.90;90.80;;;;;;4896710;29;20067;-76
2022/09/25 05:04:41;;;;;;;0.30;0.30;;;8.90;90.80;;;;;;4865529;29;20041;-76
2022/09/25 05:07:07;;;;;;;0.30;0.30;;;8.90;90.80;;;;;;4897163;29;20040;-76
2022/09/25 05:09:33;;;;;;;0.28;0.28;;;8.90;90.80;;;;;;4896675;29;20436;-76
2022/09/25 05:11:59;;;;;;;0.38;0.30;;;8.80;90.70;;;;;;4880149;29;20143;-75
2022/09/25 05:14:26;;;;;;;0.35;0.30;;;8.80;90.80;;;;;;4896737;29;20128;-76
2022/09/25 05:16:51;;;;;;;0.28;0.28;;;8.80;90.80;;;;;;4873903;29;20040;-76
2022/09/25 05:19:17;;;;;;;0.25;0.25;;;8.70;90.80;;;;;;4897046;29;20025;-76
2022/09/25 05:21:43;;;;;;;0.65;0.30;;;8.70;90.80;;;;;;4864618;29;20384;-76
2022/09/25 05:24:09;;;;;;;0.20;0.20;;;8.80;90.80;;;;;;4872460;29;20411;-75
2022/09/25 05:26:36;;;;;;;0.52;0.30;;;8.70;90.80;;;;;;4896114;29;20037;-76
2022/09/25 05:29:04;;;;;;;0.25;0.25;;;8.80;90.80;;;;;;4896509;29;20491;-76
2022/09/25 05:31:30;;;;;;;0.70;0.32;;;8.80;90.80;;;;;;4896443;29;20033;-76
2022/09/25 05:33:56;;;;;;;1.40;0.40;;;8.70;90.80;;;;;;4864084;29;20052;-75
2022/09/25 05:36:22;;;;;;;0.17;0.15;;;8.70;90.80;;;;;;4896480;29;20092;-76
2022/09/25 05:38:48;;;;;;;0.50;0.30;;;8.60;90.80;;;;;;4896101;29;20127;-76
2022/09/25 05:41:15;;;;;;;0.30;0.30;;;8.60;90.80;;;;;;4864041;29;20068;-76
2022/09/25 05:43:42;;;;;;;0.30;0.30;;;8.60;90.80;;;;;;4896637;29;20033;-76
2022/09/25 05:46:09;;;;;;;0.20;0.20;;;8.60;90.80;;;;;;4864128;29;20131;-76
2022/09/25 05:48:36;;;;;;;0.20;0.20;;;8.60;90.80;;;;;;4847593;29;20132;-76
2022/09/25 05:51:01;;;;;;;0.50;0.25;;;8.60;90.80;;;;;;4895981;29;20033;-76
2022/09/25 05:53:29;;;;;;;0.90;0.30;;;8.60;90.80;;;;;;4879326;29;20052;-76
2022/09/25 05:55:58;;;;;;;0.20;0.20;;;8.70;90.80;;;;;;4871455;29;20137;-77
2022/09/25 05:58:25;;;;;;;0.20;0.20;;;8.70;90.80;;;;;;4863859;29;20513;-77
2022/09/25 06:00:51;;;;;;;0.10;0.10;;;8.60;90.70;;;;;;4895778;29;20051;-77
2022/09/25 06:03:18;;;;;;;0.70;0.40;;;8.70;90.80;;;;;;4863701;29;20041;-76
2022/09/25 06:05:45;;;;;;;0.20;0.20;;;8.60;90.70;;;;;;4879404;29;20076;-77
2022/09/25 06:08:12;;;;;;;0.22;0.22;;;8.60;90.70;;;;;;4896269;29;20056;-77
2022/09/25 06:10:38;;;;;;;0.20;0.20;;;8.70;90.80;;;;;;4880602;29;20064;-77
2022/09/25 06:13:04;;;;;;;0.28;0.28;;;8.70;90.70;;;;;;4869662;29;20090;-77
2022/09/25 06:15:36;;;;;;;0.30;0.30;;;8.70;90.70;;;;;;4902576;29;20109;-77
2022/09/25 06:18:05;;;;;;;0.75;0.30;;;8.70;90.70;;;;;;4885415;29;20043;-77
2022/09/25 06:20:31;;;;;;;0.25;0.17;;;8.70;90.70;;;;;;4869651;29;20088;-76
2022/09/25 06:22:59;;;;;;;0.30;0.20;;;8.90;90.70;;;;;;4902515;29;20040;-77
2022/09/25 06:25:28;;;;;;;0.20;0.20;;;8.90;90.60;;;;;;4885013;29;20040;-76
2022/09/25 06:27:56;;;;;;;0.40;0.25;;;8.90;90.60;;;;;;4869975;29;20124;-76
2022/09/25 06:30:26;;;;;;;0.20;0.20;;;8.90;90.60;;;;;;4885295;29;20071;-77
2022/09/25 06:33:08;;;;;;;0.25;0.25;;;9.00;90.60;;;;;;4902663;29;20128;-77
2022/09/25 06:35:35;;;;;;;0.50;0.40;;;8.90;90.60;;;;;;4901894;29;20040;-76
2022/09/25 06:38:02;;;;;;;0.25;0.20;;;9.00;90.50;;;;;;4901992;29;20119;-77
2022/09/25 06:40:30;;;;;;;0.30;0.22;;;9.10;90.80;;;;;;4901990;29;20036;-76
2022/09/25 06:42:58;;;;;;;0.20;0.20;;;9.10;90.50;;;;;;4902490;29;20464;-76
2022/09/25 06:45:25;;;;;;;0.30;0.30;;;9.20;90.50;;;;;;4902035;29;20049;-77
2022/09/25 06:47:56;;;;;;;0.57;0.20;;;9.10;90.40;;;;;;4856208;29;20126;-77
2022/09/25 06:50:26;;;;;;;0.22;0.22;;;9.20;90.40;;;;;;4877211;29;20064;-77
2022/09/25 06:52:52;;;;;;;0.28;0.28;;;9.30;90.40;;;;;;4884814;29;20036;-77
2022/09/25 06:55:17;;;;;;;0.10;0.10;;;9.30;90.40;;;;;;4901721;29;20044;-77
2022/09/25 06:57:45;;;;;;;0.10;0.10;;;9.30;90.40;;;;;;4867257;29;20395;-77
2022/09/25 07:00:11;;;;;;;0.20;0.20;;;9.40;90.40;;;;;;4902031;29;20471;-77
2022/09/25 07:05:21;;;;;;;0.10;0.10;;;9.50;90.30;;;;;;4901491;29;20036;-77
2022/09/25 07:07:47;;;;;;;0.10;0.10;;;9.60;90.30;;;;;;4902014;29;20055;-77
2022/09/25 07:10:13;;;;;;;0.30;0.20;;;9.60;90.30;;;;;;4902151;29;20040;-77
2022/09/25 07:12:40;;;;;;;0.20;0.20;;;9.70;90.30;;;;;;4901410;29;20591;-77
2022/09/25 07:15:07;;;;;;;0.22;0.22;;;9.70;90.20;;;;;;4871067;29;20454;-77
2022/09/25 07:17:33;;;;;;;0.10;0.10;;;9.80;90.20;;;;;;4869058;29;20528;-76
2022/09/25 07:19:59;;;;;;;0.30;0.20;;;9.80;90.20;;;;;;4901509;29;20067;-77
2022/09/25 07:22:25;;;;;;;0.20;0.20;;;9.90;90.20;;;;;;4900009;29;20060;-77
2022/09/25 07:24:51;;;;;;;0.20;0.20;;;10.00;90.20;;;;;;4898015;29;20071;-77
2022/09/25 07:27:17;;;;;;;0.20;0.20;;;10.10;90.20;;;;;;4898296;29;20044;-77
2022/09/25 07:29:43;;;;;;;0.20;0.20;;;10.20;90.10;;;;;;4898579;29;20040;-77
2022/09/25 07:32:09;;;;;;;0.20;0.20;;;10.20;90.10;;;;;;4898236;29;20044;-77
2022/09/25 07:34:36;;;;;;;0.50;0.28;;;10.20;90.10;;;;;;4898375;29;20055;-76
2022/09/25 07:37:02;;;;;;;0.20;0.20;;;10.30;90.10;;;;;;4881609;29;20080;-77
2022/09/25 07:39:28;;;;;;;0.13;0.13;;;10.30;90.10;;;;;;4898502;29;20124;-77
2022/09/25 07:41:54;;;;;;;0.20;0.20;;;10.40;90.00;;;;;;4875447;29;20600;-77
2022/09/25 07:44:20;;;;;;;0.30;0.20;;;10.50;90.00;;;;;;4865406;29;20096;-77
2022/09/25 07:46:46;;;;;;;0.40;0.20;;;10.60;90.00;;;;;;4873189;29;20127;-77
2022/09/25 07:49:12;;;;;;;0.20;0.20;;;10.80;89.90;;;;;;4898096;29;20041;-76
2022/09/25 07:51:38;;;;;;;0.38;0.38;;;10.80;89.80;;;;;;4881120;29;20052;-76
2022/09/25 07:54:04;;;;;;;0.22;0.20;;;10.90;89.70;;;;;;4897920;29;20048;-77
2022/09/25 07:56:30;;;;;;;0.30;0.30;;;10.90;89.60;;;;;;4898236;29;20399;-77
2022/09/25 07:58:55;;;;;;;0.43;0.30;;;11.00;89.70;;;;;;4881039;29;20036;-76
2022/09/25 08:01:21;;;;;;;0.52;0.20;;;11.10;89.60;;;;;;4897830;29;20047;-76
2022/09/25 08:03:47;;;;;;;0.52;0.20;;;11.20;89.60;;;;;;4897945;29;20436;-76
2022/09/25 08:06:13;;;;;;;0.20;0.20;;;11.30;89.60;;;;;;4868982;29;20073;-77
2022/09/25 08:08:40;;;;;;;0.25;0.25;;;11.40;89.50;;;;;;4897577;29;20052;-76
2022/09/25 08:11:10;;;;;;;0.20;0.20;;;11.50;89.50;;;;;;4898011;29;20028;-76
2022/09/25 08:13:37;;;;;;;0.30;0.30;;;11.70;89.40;;;;;;4897784;29;20029;-76
2022/09/25 08:16:05;;;;;;;0.10;0.10;;;11.60;89.20;;;;;;4898063;29;20091;-76
2022/09/25 08:18:31;;;;;;;0.25;0.25;;;11.80;89.10;;;;;;4897704;29;20116;-77
2022/09/25 08:21:01;;;;;;;0.10;0.10;;;11.80;89.00;;;;;;4880720;29;20048;-76
2022/09/25 08:23:27;;;;;;;0.10;0.10;;;12.00;89.00;;;;;;4865118;29;20395;-77
2022/09/25 08:25:58;;;;;;;1.00;0.20;;;12.10;88.90;;;;;;4880746;29;20052;-77
2022/09/25 08:28:24;;;;;;;0.10;0.10;;;12.10;88.80;;;;;;4881101;29;20032;-76
2022/09/25 08:30:50;;;;;;;0.20;0.20;;;12.10;88.70;;;;;;4864866;29;20093;-77
2022/09/25 08:33:16;;;;;;;1.02;0.20;;;12.20;88.80;;;;;;4897568;29;20029;-76
2022/09/25 08:35:42;;;;;;;0.10;0.10;;;12.30;88.80;;;;;;4880208;29;20518;-76
2022/09/25 08:38:11;;;;;;;1.00;0.28;;;12.40;88.70;;;;;;4880234;29;20558;-77
2022/09/25 08:40:44;;;;;;;0.20;0.20;;;12.40;88.60;;;;;;4864984;29;20029;-77
2022/09/25 08:43:17;;;;;;;1.02;0.20;;;12.50;88.60;;;;;;4880335;29;20081;-77
2022/09/25 08:51:18;;;;;;;0.68;0.20;;;12.80;88.30;;;;;;4883156;29;20044;-78
2022/09/25 08:53:44;;;;;;;0.80;0.30;;;12.90;88.20;;;;;;4900411;29;20048;-78
2022/09/25 08:56:14;;;;;;;0.90;0.30;;;12.90;88.10;;;;;;4898217;29;20104;-78
2022/09/25 08:58:51;;;;;;;0.20;0.20;;;13.00;88.10;;;;;;4900607;29;20036;-78
2022/09/25 09:01:21;;;;;;;0.20;0.20;;;13.00;87.90;;;;;;4870240;29;20484;-78
2022/09/25 09:04:04;;;;;;;0.15;0.15;;;13.10;87.90;;;;;;4868876;29;20041;-78
2022/09/25 09:06:31;;;;;;;0.32;0.10;;;13.20;87.90;;;;;;4896885;29;20059;-77
2022/09/25 09:09:04;;;;;;;0.40;0.38;;;13.20;88.00;;;;;;4896908;29;20488;-77
2022/09/25 09:11:38;;;;;;;0.20;0.20;;;13.20;88.00;;;;;;4896625;29;20040;-77
2022/09/25 09:14:09;;;;;;;0.47;0.20;;;13.20;88.00;;;;;;4896677;29;20040;-77
2022/09/25 09:16:44;;;;;;;1.35;0.28;;;13.30;87.90;;;;;;4896296;29;20133;-77
2022/09/25 09:19:11;;;;;;;0.22;0.22;;;13.30;87.90;;;;;;4875879;29;20037;-76
2022/09/25 09:21:45;;;;;;;0.20;0.20;;;13.30;87.80;;;;;;4896337;29;20043;-76
2022/09/25 09:24:34;;;;;;;0.30;0.20;;;13.50;87.90;;;;;;4896874;29;20456;-77
2022/09/25 09:27:23;;;;;;;0.50;0.28;;;13.40;87.60;;;;;;4896438;29;20078;-77
2022/09/25 09:30:06;;;;;;;0.32;0.20;;;13.40;87.60;;;;;;4896248;29;20036;-77
2022/09/25 09:32:46;;;;;;;0.35;0.25;;;13.40;87.70;;;;;;4864413;29;20138;-77
2022/09/25 09:35:45;;;;;;;0.10;0.10;;;13.40;87.60;;;;;;4896722;29;20053;-77
2022/09/25 09:38:31;;;;;;;0.20;0.20;;;13.40;87.70;;;;;;4884194;29;20049;-77
2022/09/25 09:41:22;;;;;;;1.05;0.40;;;13.50;87.50;;;;;;4895975;29;20029;-75
2022/09/25 09:44:05;;;;;;;0.98;0.20;;;13.50;87.50;;;;;;4879595;29;20041;-76
2022/09/25 09:46:56;;;;;;;1.13;0.30;;;13.60;87.40;;;;;;4894933;29;20036;-76
2022/09/25 09:49:38;;;;;;;0.43;0.38;;;13.50;87.20;;;;;;4896142;29;20033;-77
2022/09/25 09:52:19;;;;;;;0.22;0.22;;;13.60;87.20;;;;;;4864059;29;20088;-76
2022/09/25 09:54:59;;;;;;;0.40;0.40;;;13.60;87.20;;;;;;4896500;29;20051;-76
2022/09/25 09:57:30;;;;;;;0.32;0.30;;;13.70;87.20;;;;;;4895957;29;20044;-76
2022/09/25 10:00:01;;;;;;;0.47;0.30;;;13.70;86.80;;;;;;4879740;29;20033;-76
2022/09/25 10:02:44;;;;;;;0.43;0.40;;;13.80;86.60;;;;;;4895901;29;20045;-76
2022/09/25 10:05:24;;;;;;;0.20;0.20;;;13.90;86.40;;;;;;4896253;29;20036;-76
2022/09/25 10:07:51;;;;;;;0.20;0.20;;;13.80;86.20;;;;;;4879118;29;20047;-76
2022/09/25 10:10:18;;;;;;;0.47;0.20;;;13.90;86.30;;;;;;4879209;29;20067;-76
2022/09/25 10:12:53;;;;;;;0.28;0.28;;;13.90;86.30;;;;;;4878987;29;20074;-76
2022/09/25 10:15:27;;;;;;;0.75;0.22;;;13.90;86.10;;;;;;4895665;29;20084;-76
2022/09/25 10:17:56;;;;;;;0.17;0.17;;;13.90;85.90;;;;;;4877555;29;20045;-76
2022/09/25 10:20:25;;;;;;;1.65;0.20;;;14.00;85.90;;;;;;4865432;29;20136;-76
2022/09/25 10:22:55;;;;;;;0.80;0.30;;;14.00;85.80;;;;;;4896447;29;20111;-76
2022/09/25 10:25:38;;;;;;;0.95;0.40;;;14.10;85.60;;;;;;4863921;29;20083;-76
2022/09/25 10:28:25;;;;;;;0.80;0.30;;;14.20;85.40;;;;;;4879450;29;20047;-76
2022/09/25 10:30:52;;;;;;;0.88;0.20;;;14.30;85.30;;;;;;4895460;29;20380;-76
2022/09/25 10:33:22;;;;;;;0.40;0.22;;;14.40;85.20;;;;;;4878746;29;20041;-76
2022/09/25 10:35:50;;;;;;;0.30;0.30;;;14.40;85.00;;;;;;4895476;29;20044;-76
2022/09/25 10:38:48;;;;;;;0.70;0.40;;;14.50;84.90;;;;;;4896155;29;20041;-76
2022/09/25 10:41:18;;;;;;;0.45;0.20;;;14.40;84.50;;;;;;4895665;29;20036;-75
2022/09/25 10:43:55;;;;;;;0.38;0.35;;;14.50;84.40;;;;;;4865965;29;20040;-75
2022/09/25 10:52:04;;;;;;;0.13;0.13;;;14.60;84.30;;;;;;4881580;29;20123;-75
2022/09/25 10:54:30;;;;;;;0.70;0.20;;;14.70;84.20;;;;;;4895603;29;20591;-75
2022/09/25 10:56:56;;;;;;;0.20;0.20;;;14.70;84.10;;;;;;4895979;29;20060;-75
2022/09/25 10:59:23;;;;;;;0.10;0.10;;;14.70;84.20;;;;;;4898860;29;20033;-76
2022/09/25 11:01:51;;;;;;;0.38;0.20;;;14.70;84.10;;;;;;4898611;29;20104;-75
2022/09/25 11:04:22;;;;;;;0.70;0.20;;;14.80;84.00;;;;;;4866956;29;20044;-75
2022/09/25 11:06:51;;;;;;;0.20;0.20;;;14.80;83.70;;;;;;4898649;29;20044;-75
2022/09/25 11:09:22;;;;;;;0.40;0.20;;;14.90;83.60;;;;;;4898505;29;20056;-75
2022/09/25 11:11:51;;;;;;;0.20;0.20;;;15.00;83.40;;;;;;4870851;29;20045;-75
2022/09/25 11:14:23;;;;;;;0.10;0.10;;;15.10;83.30;;;;;;4898317;29;20407;-75
2022/09/25 11:16:53;;;;;;;0.10;0.10;;;15.10;83.10;;;;;;4898479;29;20503;-75
2022/09/25 11:19:30;;;;;;;0.10;0.10;;;15.20;82.90;;;;;;4898440;29;20475;-75
2022/09/25 11:22:25;;;;;;;0.30;0.20;;;15.20;82.70;;;;;;4881553;29;20172;-75
2022/09/25 11:25:10;;;;;;;0.10;0.10;;;15.20;82.60;;;;;;4865676;29;20492;-75
2022/09/25 11:27:44;;;;;;;0.13;0.13;;;15.30;82.60;;;;;;4882723;29;20040;-75
2022/09/25 11:30:15;;;;;;;0.28;0.20;;;15.30;82.60;;;;;;4898425;29;20581;-74
2022/09/25 11:33:03;;;;;;;0.20;0.20;;;15.30;82.50;;;;;;4898679;29;20491;-75
2022/09/25 11:35:57;;;;;;;0.38;0.20;;;15.40;82.40;;;;;;4881288;29;20068;-75
2022/09/25 11:41:49;;;;;;;0.20;0.20;;;15.50;81.80;;;;;;4885202;29;20514;-75
2022/09/25 11:44:39;;;;;;;0.20;0.20;;;15.70;81.50;;;;;;4884082;29;20039;-75
2022/09/25 11:47:15;;;;;;;0.40;0.10;;;15.70;81.30;;;;;;4898104;29;20049;-75
2022/09/25 11:49:41;;;;;;;0.20;0.20;;;15.70;81.20;;;;;;4897831;29;20032;-75
2022/09/25 11:52:24;;;;;;;0.68;0.20;;;15.80;81.20;;;;;;4881556;29;20120;-75
2022/09/25 11:55:17;;;;;;;0.10;0.10;;;15.80;80.90;;;;;;4898001;29;20101;-75
2022/09/25 11:58:07;;;;;;;1.52;0.20;;;15.70;80.80;;;;;;4883109;29;20081;-75
2022/09/25 12:00:48;;;;;;;0.25;0.15;;;15.70;80.90;;;;;;4898138;29;20041;-75
2022/09/25 12:03:54;;;;;;;0.20;0.20;;;15.60;80.80;;;;;;4869044;29;20120;-75
2022/09/25 12:06:48;;;;;;;0.95;0.30;;;15.60;81.00;;;;;;4873099;29;20048;-75
2022/09/25 12:09:32;;;;;;;0.20;0.20;;;15.50;80.90;;;;;;4864319;29;20037;-75
2022/09/25 12:12:14;;;;;;;0.55;0.30;;;15.50;80.90;;;;;;4897659;29;20029;-75
2022/09/25 12:14:56;;;;;;;0.65;0.25;;;15.50;80.90;;;;;;4896296;29;20530;-75
2022/09/25 12:17:38;;;;;;;0.47;0.32;;;15.40;80.70;;;;;;4897474;29;20103;-75
2022/09/25 12:20:39;;;;;;;0.22;0.20;;;15.40;80.80;;;;;;4897342;29;20761;-74
2022/09/25 12:23:31;;;;;;;0.30;0.30;;;15.30;81.10;;;;;;4884498;29;20407;-74
2022/09/25 12:26:19;;;;;;;0.20;0.20;;;15.20;81.40;;;;;;4881209;29;20056;-74
2022/09/25 12:29:10;;;;;;;0.10;0.10;;;15.10;81.50;;;;;;4897469;29;20044;-74
2022/09/25 12:32:10;;;;;;;0.30;0.30;;;15.10;81.60;;;;;;4897920;29;20109;-74
2022/09/25 12:35:06;;;;;;;0.30;0.30;;;15.10;81.70;;;;;;4862991;29;20078;-74
2022/09/25 12:37:43;;;;;;;0.20;0.20;;;15.10;81.70;;;;;;4897827;29;20087;-74
2022/09/25 12:40:42;;;;;;;0.68;0.30;;;15.00;81.60;;;;;;4881254;29;20053;-74
2022/09/25 12:43:17;;;;;;;0.13;0.13;;;15.10;81.70;;;;;;4872030;29;20116;-74
2022/09/25 12:45:49;;;;;;;0.98;0.20;;;15.10;81.70;;;;;;4898022;29;20475;-74
2022/09/25 12:48:23;;;;;;;0.47;0.30;;;15.20;81.70;;;;;;4898637;29;20052;-74
2022/09/25 12:51:13;;;;;;;0.22;0.20;;;15.10;81.60;;;;;;4897805;29;20041;-74
2022/09/25 12:53:47;;;;;;;0.57;0.20;;;15.20;81.50;;;;;;4880738;29;20404;-74
2022/09/25 12:56:23;;;;;;;0.47;0.20;;;15.30;81.50;;;;;;4874165;29;20147;-74
2022/09/25 12:59:04;;;;;;;0.15;0.15;;;15.50;81.00;;;;;;4865583;29;20037;-75
2022/09/25 13:01:45;;;;;;;0.10;0.10;;;15.60;80.50;;;;;;4899179;29;20033;-74
2022/09/25 13:04:32;;;;;;;0.20;0.20;;;15.70;80.10;;;;;;4867898;29;20044;-74
2022/09/25 13:07:15;;;;;;;0.10;0.10;;;15.70;79.80;;;;;;4897365;29;20100;-74
2022/09/25 13:09:46;;;;;;;0.10;0.10;;;15.70;79.70;;;;;;4897611;29;20088;-74
2022/09/25 13:12:32;;;;;;;0.20;0.20;;;15.60;79.70;;;;;;4881361;29;20051;-74
2022/09/25 13:15:16;;;;;;;0.22;0.10;;;15.60;79.80;;;;;;4896093;29;20504;-74
2022/09/25 13:17:42;;;;;;;0.70;0.25;;;15.50;79.90;;;;;;4897945;29;20044;-74
2022/09/25 13:20:44;;;;;;;0.20;0.10;;;15.50;80.00;;;;;;4864109;29;20100;-74
2022/09/25 13:23:24;;;;;;;0.40;0.20;;;15.40;80.20;;;;;;4897741;29;20075;-74
2022/09/25 13:25:59;;;;;;;0.17;0.17;;;15.30;80.40;;;;;;4898433;29;20041;-74
2022/09/25 13:28:31;;;;;;;0.52;0.20;;;15.30;80.70;;;;;;4897842;29;20032;-75
2022/09/25 13:31:05;;;;;;;0.20;0.20;;;15.30;80.70;;;;;;4881480;29;20216;-74
2022/09/25 13:33:41;;;;;;;0.63;0.20;;;15.40;80.60;;;;;;4897660;29;20043;-75
2022/09/25 13:36:11;;;;;;;0.70;0.20;;;15.70;80.30;;;;;;4880455;29;20128;-74
2022/09/25 13:41:25;;;;;;;0.45;0.35;;;16.00;79.40;;;;;;4897360;29;20813;-73
2022/09/25 13:44:30;;;;;;;0.77;0.20;;;16.10;79.10;;;;;;4897725;29;20052;-74
2022/09/25 13:47:32;;;;;;;0.10;0.10;;;16.20;78.70;;;;;;4897236;29;20074;-74
2022/09/25 13:50:17;;;;;;;0.30;0.15;;;16.50;78.50;;;;;;4882131;29;20479;-74